Time;durP1;ratioP1;P1;durP2;ratioP2;P2;SDS_P1;SDS_P2;PMS_P1;PMS_P2;Temp;Humidity;BMP_temperature;BMP_pressure;BME280_temperature;BME280_humidity;BME280_pressure;Samples;Min_cycle;Max_cycle;Signal;HPM_P1;HPM_P2
2022/10/28 00:00:00;;;;;;;33.93;25.47;;;13.00;99.90;;;;;;5091292;28;20205;-68
2022/10/28 00:02:27;;;;;;;33.53;25.90;;;13.00;99.90;;;;;;5091655;28;20212;-67
2022/10/28 00:04:53;;;;;;;30.17;24.73;;;13.00;99.90;;;;;;5090750;28;20209;-68
2022/10/28 00:07:20;;;;;;;32.13;25.07;;;13.00;99.90;;;;;;5090884;28;20601;-67
2022/10/28 00:09:47;;;;;;;34.20;25.63;;;13.00;99.90;;;;;;5089726;28;20212;-67
2022/10/28 00:12:13;;;;;;;32.80;24.23;;;13.00;99.90;;;;;;5091080;28;20661;-67
2022/10/28 00:14:42;;;;;;;34.50;25.83;;;13.00;99.90;;;;;;5090947;28;20223;-67
2022/10/28 00:17:08;;;;;;;32.60;24.53;;;13.00;99.90;;;;;;5091000;28;20196;-66
2022/10/28 00:19:35;;;;;;;31.63;24.77;;;13.00;99.90;;;;;;5090778;28;20680;-67
2022/10/28 00:22:02;;;;;;;32.17;24.13;;;13.00;99.90;;;;;;5090999;28;20219;-68
2022/10/28 00:24:28;;;;;;;31.77;24.80;;;13.00;99.90;;;;;;5091002;28;20208;-67
2022/10/28 00:26:55;;;;;;;34.80;25.77;;;13.00;99.90;;;;;;5088815;28;20196;-68
2022/10/28 00:29:23;;;;;;;33.17;25.33;;;13.00;99.90;;;;;;5091062;28;20535;-67
2022/10/28 00:31:51;;;;;;;34.50;24.33;;;13.00;99.90;;;;;;5090964;28;20211;-67
2022/10/28 00:34:21;;;;;;;30.97;24.20;;;13.00;99.90;;;;;;5090541;28;20196;-68
2022/10/28 00:36:48;;;;;;;30.63;24.50;;;13.00;99.90;;;;;;5090707;28;20200;-67
2022/10/28 00:39:17;;;;;;;32.57;24.80;;;13.00;99.90;;;;;;5090710;28;20558;-68
2022/10/28 00:41:46;;;;;;;30.77;23.90;;;12.90;99.90;;;;;;5090944;28;20201;-68
2022/10/28 00:44:47;;;;;;;31.13;23.27;;;13.00;99.90;;;;;;5089336;28;20204;-68
2022/10/28 00:47:20;;;;;;;30.27;24.07;;;12.90;99.90;;;;;;5090727;28;20301;-68
2022/10/28 00:49:50;;;;;;;30.53;23.97;;;12.90;99.90;;;;;;5091097;28;20193;-68
2022/10/28 00:52:21;;;;;;;34.40;25.17;;;12.90;99.90;;;;;;5091440;28;20201;-67
2022/10/28 00:54:49;;;;;;;32.30;25.17;;;12.90;99.90;;;;;;5091494;28;20585;-67
2022/10/28 00:57:19;;;;;;;29.00;23.40;;;12.90;99.90;;;;;;5091558;28;20193;-68
2022/10/28 00:59:50;;;;;;;30.13;24.53;;;12.90;99.90;;;;;;5090645;28;20197;-67
2022/10/28 01:02:19;;;;;;;31.77;24.70;;;12.90;99.90;;;;;;5091237;28;20196;-67
2022/10/28 01:04:47;;;;;;;33.63;25.40;;;12.90;99.90;;;;;;5091365;28;20201;-67
2022/10/28 01:07:14;;;;;;;32.27;25.30;;;12.90;99.90;;;;;;5091303;28;20255;-67
2022/10/28 01:09:41;;;;;;;28.63;24.17;;;12.90;99.90;;;;;;5095459;28;20516;-67
2022/10/28 01:12:17;;;;;;;32.17;23.97;;;12.80;99.90;;;;;;5095742;28;20201;-67
2022/10/28 01:14:59;;;;;;;29.47;24.53;;;12.80;99.90;;;;;;5095679;28;20208;-66
2022/10/28 01:17:40;;;;;;;26.70;22.40;;;12.80;99.90;;;;;;5094355;28;20641;-67
2022/10/28 01:20:39;;;;;;;29.77;24.47;;;12.80;99.90;;;;;;5095467;28;20196;-67
2022/10/28 01:23:15;;;;;;;34.20;24.80;;;12.80;99.90;;;;;;5083735;28;20232;-67
2022/10/28 01:26:15;;;;;;;29.83;23.63;;;12.80;99.90;;;;;;5094664;28;20201;-67
2022/10/28 01:29:25;;;;;;;32.33;24.80;;;12.70;99.90;;;;;;5094291;28;20584;-68
2022/10/28 01:31:57;;;;;;;32.27;23.97;;;12.70;99.90;;;;;;5094128;28;20200;-68
2022/10/28 01:34:31;;;;;;;31.20;24.37;;;12.70;99.90;;;;;;5092417;28;20196;-68
2022/10/28 01:37:05;;;;;;;32.37;23.37;;;12.70;99.90;;;;;;5093944;28;20192;-68
2022/10/28 01:39:37;;;;;;;32.73;24.20;;;12.60;99.90;;;;;;5094252;28;20207;-67
2022/10/28 01:42:15;;;;;;;31.10;24.40;;;12.60;99.90;;;;;;5094411;28;20185;-68
2022/10/28 01:44:48;;;;;;;28.80;23.63;;;12.60;99.90;;;;;;5094247;28;20184;-69
2022/10/28 01:47:22;;;;;;;30.00;23.67;;;12.50;99.90;;;;;;5093703;28;20633;-67
2022/10/28 01:49:54;;;;;;;29.83;23.17;;;12.50;99.90;;;;;;5094297;28;20200;-67
2022/10/28 01:52:25;;;;;;;29.97;23.00;;;12.50;99.90;;;;;;5092774;28;20204;-68
2022/10/28 01:54:57;;;;;;;29.57;22.70;;;12.40;99.90;;;;;;5093801;28;20193;-68
2022/10/28 01:57:27;;;;;;;29.57;23.03;;;12.40;99.90;;;;;;5094045;28;20196;-68
2022/10/28 01:59:55;;;;;;;27.47;23.10;;;12.40;99.90;;;;;;5093521;28;20201;-67
2022/10/28 02:02:23;;;;;;;31.33;23.20;;;12.40;99.90;;;;;;5093409;28;20201;-67
2022/10/28 02:04:50;;;;;;;31.23;23.30;;;12.30;99.90;;;;;;5093352;28;20204;-67
2022/10/28 02:07:17;;;;;;;30.33;23.47;;;12.30;99.90;;;;;;5093583;28;20228;-67
2022/10/28 02:09:56;;;;;;;34.13;23.03;;;12.30;99.90;;;;;;5092035;28;20208;-68
2022/10/28 02:12:28;;;;;;;28.60;21.70;;;12.20;99.90;;;;;;5093224;28;20567;-69
2022/10/28 02:15:11;;;;;;;27.40;22.63;;;12.20;99.90;;;;;;5093285;28;20410;-67
2022/10/28 02:17:50;;;;;;;29.33;22.77;;;12.10;99.90;;;;;;5093215;28;20211;-67
2022/10/28 02:20:27;;;;;;;28.57;22.70;;;12.10;99.90;;;;;;5092022;28;20192;-67
2022/10/28 02:22:58;;;;;;;28.00;22.77;;;12.10;99.90;;;;;;5092980;28;20231;-67
2022/10/28 02:25:31;;;;;;;30.87;23.80;;;12.10;99.90;;;;;;5091729;28;20658;-67
2022/10/28 02:28:04;;;;;;;27.77;23.47;;;12.10;99.90;;;;;;5092857;28;20204;-66
2022/10/28 02:30:35;;;;;;;27.27;22.57;;;12.10;99.90;;;;;;5093059;28;20614;-67
2022/10/28 02:33:06;;;;;;;28.50;22.57;;;12.10;99.90;;;;;;5092750;28;20192;-67
2022/10/28 02:35:38;;;;;;;29.23;23.83;;;12.10;99.90;;;;;;5092731;28;20654;-68
2022/10/28 02:38:10;;;;;;;28.83;23.40;;;12.10;99.90;;;;;;5093127;28;20189;-67
2022/10/28 02:40:39;;;;;;;29.57;22.77;;;12.10;99.90;;;;;;5092694;28;20196;-67
2022/10/28 02:43:09;;;;;;;30.50;23.30;;;12.00;99.90;;;;;;5092029;28;20205;-67
2022/10/28 02:45:40;;;;;;;29.73;22.87;;;12.00;99.90;;;;;;5092877;28;20196;-67
2022/10/28 02:48:12;;;;;;;27.53;21.57;;;12.00;99.90;;;;;;5092625;28;20547;-68
2022/10/28 02:50:46;;;;;;;28.70;22.27;;;12.00;99.90;;;;;;5092300;28;20512;-67
2022/10/28 02:53:18;;;;;;;27.10;21.40;;;11.90;99.90;;;;;;5092270;28;20185;-67
2022/10/28 02:55:51;;;;;;;28.30;23.13;;;11.90;99.90;;;;;;5092579;28;20207;-67
2022/10/28 02:58:18;;;;;;;27.70;21.03;;;11.90;99.90;;;;;;5092685;28;20189;-68
2022/10/28 03:00:46;;;;;;;27.90;22.37;;;11.90;99.90;;;;;;5091344;28;20224;-67
2022/10/28 03:03:14;;;;;;;27.20;21.70;;;11.90;99.90;;;;;;5092415;28;20575;-67
2022/10/28 03:05:40;;;;;;;25.17;21.27;;;11.90;99.90;;;;;;5091706;28;20240;-67
2022/10/28 03:08:07;;;;;;;26.57;21.83;;;11.90;99.90;;;;;;5092466;28;20215;-66
2022/10/28 03:10:34;;;;;;;27.47;21.33;;;11.80;99.90;;;;;;5092090;28;20676;-67
2022/10/28 03:13:01;;;;;;;25.67;20.73;;;11.90;99.90;;;;;;5091542;28;20208;-67
2022/10/28 03:15:28;;;;;;;26.07;21.77;;;11.90;99.90;;;;;;5092268;28;20200;-67
2022/10/28 03:17:55;;;;;;;27.87;21.77;;;11.70;99.90;;;;;;5090777;28;20215;-67
2022/10/28 03:20:23;;;;;;;26.00;21.40;;;11.80;99.90;;;;;;5091864;28;20244;-68
2022/10/28 03:22:49;;;;;;;24.77;20.67;;;11.80;99.90;;;;;;5091702;28;20313;-67
2022/10/28 03:25:16;;;;;;;26.47;20.57;;;11.80;99.90;;;;;;5092000;28;20216;-67
2022/10/28 03:27:43;;;;;;;27.03;21.67;;;11.80;99.90;;;;;;5092326;28;20200;-68
2022/10/28 03:30:10;;;;;;;25.40;20.40;;;11.80;99.90;;;;;;5091500;28;20200;-67
2022/10/28 03:32:37;;;;;;;25.57;20.67;;;11.80;99.90;;;;;;5091595;28;20205;-68
2022/10/28 03:35:05;;;;;;;25.43;20.37;;;11.80;99.90;;;;;;5090584;28;20235;-67
2022/10/28 03:37:33;;;;;;;24.70;19.00;;;11.80;99.90;;;;;;5091904;28;20239;-68
2022/10/28 03:40:01;;;;;;;24.33;20.07;;;11.80;99.90;;;;;;5091902;28;20672;-67
2022/10/28 03:42:28;;;;;;;28.90;20.73;;;11.80;99.90;;;;;;5091812;28;20242;-67
2022/10/28 03:44:55;;;;;;;27.87;20.40;;;11.80;99.90;;;;;;5091801;28;20215;-67
2022/10/28 03:47:21;;;;;;;24.77;20.40;;;11.80;99.90;;;;;;5091612;28;20200;-67
2022/10/28 03:49:48;;;;;;;24.77;20.00;;;11.80;99.90;;;;;;5091099;28;20231;-67
2022/10/28 03:52:15;;;;;;;26.47;21.03;;;11.80;99.90;;;;;;5091143;28;20822;-68
2022/10/28 03:54:43;;;;;;;23.87;20.57;;;11.90;99.90;;;;;;5091653;28;20560;-67
2022/10/28 03:57:09;;;;;;;25.13;20.60;;;11.80;99.90;;;;;;5091342;28;20201;-67
2022/10/28 03:59:36;;;;;;;26.53;21.13;;;11.90;99.90;;;;;;5090870;28;20196;-67
2022/10/28 04:02:03;;;;;;;24.27;20.80;;;11.90;99.90;;;;;;5090937;28;20208;-67
2022/10/28 04:04:30;;;;;;;25.70;20.67;;;11.90;99.90;;;;;;5091244;28;20208;-67
2022/10/28 04:06:56;;;;;;;24.63;20.70;;;11.90;99.90;;;;;;5089677;28;20608;-67
2022/10/28 04:09:23;;;;;;;25.70;20.97;;;11.90;99.90;;;;;;5091132;28;20224;-68
2022/10/28 04:11:51;;;;;;;23.27;19.17;;;11.90;99.90;;;;;;5090890;28;20196;-67
2022/10/28 04:14:18;;;;;;;24.07;19.67;;;12.00;99.90;;;;;;5090898;28;20189;-68
2022/10/28 04:16:45;;;;;;;25.57;19.57;;;11.90;99.90;;;;;;5090618;28;20215;-68
2022/10/28 04:19:11;;;;;;;23.37;20.17;;;12.00;99.90;;;;;;5091083;28;20373;-68
2022/10/28 04:21:38;;;;;;;21.17;18.87;;;12.00;99.90;;;;;;5090078;28;20204;-67
2022/10/28 04:24:05;;;;;;;23.37;18.53;;;12.00;99.90;;;;;;5090704;28;20232;-68
2022/10/28 04:26:32;;;;;;;24.03;18.43;;;12.00;99.90;;;;;;5090831;28;20652;-68
2022/10/28 04:29:00;;;;;;;20.97;18.00;;;11.90;99.90;;;;;;5090903;28;20224;-67
2022/10/28 04:31:27;;;;;;;24.90;18.27;;;11.90;99.90;;;;;;5090522;28;20205;-68
2022/10/28 04:33:54;;;;;;;22.07;18.10;;;11.90;99.90;;;;;;5090896;28;20208;-67
2022/10/28 04:36:20;;;;;;;26.50;19.23;;;11.90;99.90;;;;;;5091059;28;20672;-68
2022/10/28 04:38:48;;;;;;;23.70;18.73;;;11.90;99.90;;;;;;5089538;28;20244;-67
2022/10/28 04:41:16;;;;;;;20.63;17.97;;;11.90;99.90;;;;;;5090829;28;20211;-67
2022/10/28 04:43:42;;;;;;;26.27;20.37;;;11.80;99.90;;;;;;5093186;28;20196;-67
2022/10/28 04:46:10;;;;;;;22.60;18.10;;;11.90;99.90;;;;;;5094472;28;20205;-67
2022/10/28 04:48:37;;;;;;;22.27;19.13;;;11.90;99.90;;;;;;5094524;28;20229;-67
2022/10/28 04:51:04;;;;;;;22.30;18.40;;;11.90;99.90;;;;;;5094680;28;20200;-67
2022/10/28 04:53:31;;;;;;;27.03;18.83;;;11.90;99.90;;;;;;5094920;28;20204;-67
2022/10/28 04:55:59;;;;;;;21.87;18.30;;;11.90;99.90;;;;;;5093947;28;20205;-67
2022/10/28 04:58:26;;;;;;;28.33;19.87;;;11.90;99.90;;;;;;5094552;28;20699;-66
2022/10/28 05:00:53;;;;;;;24.33;19.53;;;11.80;99.90;;;;;;5094657;28;20633;-69
2022/10/28 05:03:21;;;;;;;25.10;19.27;;;11.80;99.90;;;;;;5094313;28;20211;-67
2022/10/28 05:05:48;;;;;;;25.53;19.87;;;11.90;99.90;;;;;;5094343;28;20244;-68
2022/10/28 05:08:15;;;;;;;25.47;19.60;;;11.90;99.90;;;;;;5094591;28;20212;-67
2022/10/28 05:10:41;;;;;;;26.23;19.53;;;11.90;99.90;;;;;;5093344;28;20491;-67
2022/10/28 05:13:08;;;;;;;26.67;19.93;;;11.90;99.90;;;;;;5094854;28;20204;-68
2022/10/28 05:15:35;;;;;;;23.97;18.33;;;11.80;99.90;;;;;;5094096;28;20212;-67
2022/10/28 05:18:01;;;;;;;27.77;19.90;;;11.90;99.90;;;;;;5093808;28;20192;-67
2022/10/28 05:20:29;;;;;;;24.83;19.37;;;11.90;99.90;;;;;;5094331;28;20220;-67
2022/10/28 05:22:56;;;;;;;23.67;18.93;;;12.00;99.90;;;;;;5093930;28;20228;-67
2022/10/28 05:25:23;;;;;;;27.37;19.47;;;11.90;99.90;;;;;;5093444;28;20231;-67
2022/10/28 05:27:50;;;;;;;23.77;17.87;;;12.00;99.90;;;;;;5094120;28;20200;-68
2022/10/28 05:30:17;;;;;;;20.27;17.47;;;11.90;99.90;;;;;;5094007;28;20228;-68
2022/10/28 05:32:45;;;;;;;21.57;18.67;;;11.90;99.90;;;;;;5093725;28;20562;-69
2022/10/28 05:35:12;;;;;;;23.93;17.67;;;11.90;99.90;;;;;;5094082;28;20653;-69
2022/10/28 05:37:40;;;;;;;24.03;18.77;;;11.90;99.90;;;;;;5094133;28;20215;-68
2022/10/28 05:40:08;;;;;;;22.40;17.17;;;11.90;99.90;;;;;;5093275;28;20430;-67
2022/10/28 05:42:40;;;;;;;19.60;16.50;;;11.80;99.90;;;;;;5093422;28;20204;-68
2022/10/28 05:45:08;;;;;;;21.93;16.60;;;11.80;99.90;;;;;;5092568;28;20686;-68
2022/10/28 05:47:34;;;;;;;20.40;16.60;;;11.80;99.90;;;;;;5093589;28;20208;-68
2022/10/28 05:50:01;;;;;;;16.90;15.10;;;11.70;99.90;;;;;;5093206;28;20220;-68
2022/10/28 05:52:28;;;;;;;23.43;16.73;;;11.70;99.90;;;;;;5093485;28;20689;-67
2022/10/28 05:54:56;;;;;;;20.80;17.77;;;11.70;99.90;;;;;;5092829;28;20224;-69
2022/10/28 05:57:23;;;;;;;21.53;17.20;;;11.60;99.90;;;;;;5094031;28;20227;-67
2022/10/28 05:59:49;;;;;;;19.37;16.10;;;11.70;99.90;;;;;;5093828;28;20232;-68
2022/10/28 06:02:16;;;;;;;24.03;17.27;;;11.60;99.90;;;;;;5091204;28;20212;-67
2022/10/28 06:04:43;;;;;;;19.20;16.93;;;11.60;99.90;;;;;;5093649;28;20208;-67
2022/10/28 06:07:10;;;;;;;26.13;17.13;;;11.60;99.90;;;;;;5092808;28;20242;-68
2022/10/28 06:09:36;;;;;;;21.23;17.13;;;11.50;99.90;;;;;;5093226;28;20225;-67
2022/10/28 06:12:07;;;;;;;18.93;16.60;;;11.60;99.90;;;;;;5092978;28;20657;-68
2022/10/28 06:14:33;;;;;;;22.30;16.80;;;11.60;99.90;;;;;;5093073;28;20217;-67
2022/10/28 06:17:00;;;;;;;22.20;18.43;;;11.70;99.90;;;;;;5091909;28;20215;-67
2022/10/28 06:19:27;;;;;;;21.23;17.53;;;11.70;99.90;;;;;;5093410;28;20201;-69
2022/10/28 06:21:54;;;;;;;25.20;17.80;;;11.80;99.90;;;;;;5093003;28;20657;-68
2022/10/28 06:24:20;;;;;;;21.13;16.30;;;11.80;99.90;;;;;;5092605;28;20196;-69
2022/10/28 06:26:47;;;;;;;24.67;17.27;;;11.80;99.90;;;;;;5093184;28;20216;-68
2022/10/28 06:29:15;;;;;;;21.03;17.37;;;11.80;99.90;;;;;;5092873;28;20270;-68
2022/10/28 06:31:43;;;;;;;21.50;17.90;;;11.80;99.90;;;;;;5092844;28;20196;-67
2022/10/28 06:34:10;;;;;;;23.20;17.83;;;11.80;99.90;;;;;;5091454;28;20209;-68
2022/10/28 06:36:37;;;;;;;24.03;16.67;;;11.90;99.90;;;;;;5093072;28;20654;-68
2022/10/28 06:39:05;;;;;;;22.63;18.30;;;11.90;99.90;;;;;;5092577;28;20207;-68
2022/10/28 06:41:32;;;;;;;23.50;18.67;;;11.90;99.90;;;;;;5092658;28;20211;-67
2022/10/28 06:43:58;;;;;;;24.63;18.53;;;12.00;99.90;;;;;;5091730;28;20245;-68
2022/10/28 06:46:27;;;;;;;22.83;17.73;;;12.20;99.90;;;;;;5092403;28;20204;-68
2022/10/28 06:48:54;;;;;;;23.63;17.27;;;12.30;99.90;;;;;;5091131;28;20205;-70
2022/10/28 06:51:21;;;;;;;24.73;18.03;;;12.40;99.90;;;;;;5092542;28;20205;-67
2022/10/28 06:53:49;;;;;;;25.30;17.50;;;12.50;99.90;;;;;;5092032;28;20214;-68
2022/10/28 06:56:17;;;;;;;26.10;18.17;;;12.70;99.90;;;;;;5092121;28;20205;-68
2022/10/28 06:58:43;;;;;;;25.40;19.17;;;12.80;99.90;;;;;;5091653;28;20200;-67
2022/10/28 07:01:10;;;;;;;21.80;18.03;;;12.90;99.90;;;;;;5092174;28;20561;-68
2022/10/28 07:03:38;;;;;;;24.10;18.50;;;12.90;99.90;;;;;;5092105;28;20576;-68
2022/10/28 07:06:06;;;;;;;29.40;17.97;;;13.00;99.90;;;;;;5089956;28;20243;-68
2022/10/28 07:08:32;;;;;;;24.87;18.20;;;13.10;99.90;;;;;;5092188;28;20200;-68
2022/10/28 07:11:01;;;;;;;26.03;18.80;;;13.10;99.90;;;;;;5091924;28;20224;-68
2022/10/28 07:13:28;;;;;;;23.23;17.97;;;13.20;99.90;;;;;;5091909;28;20205;-71
2022/10/28 07:15:56;;;;;;;25.93;19.17;;;13.30;99.90;;;;;;5092640;28;20657;-67
2022/10/28 07:18:24;;;;;;;23.73;18.07;;;13.40;99.90;;;;;;5091979;28;20212;-69
2022/10/28 07:20:52;;;;;;;21.17;18.07;;;13.40;99.90;;;;;;5092593;28;20200;-67
2022/10/28 07:23:19;;;;;;;21.00;17.17;;;13.50;99.90;;;;;;5090523;28;20706;-68
2022/10/28 07:25:52;;;;;;;21.43;17.93;;;13.50;99.90;;;;;;5091856;28;20615;-70
2022/10/28 07:28:19;;;;;;;26.90;18.77;;;13.60;99.90;;;;;;5092382;28;20193;-68
2022/10/28 07:30:45;;;;;;;22.97;18.07;;;13.70;99.90;;;;;;5091946;28;20231;-69
2022/10/28 07:33:12;;;;;;;26.07;19.00;;;13.90;99.90;;;;;;5092267;28;20204;-68
2022/10/28 07:35:39;;;;;;;22.87;17.27;;;14.10;99.90;;;;;;5089225;28;21409;-68
2022/10/28 07:38:07;;;;;;;23.30;18.13;;;14.20;99.90;;;;;;5091485;28;20577;-68
2022/10/28 07:40:34;;;;;;;23.83;18.53;;;14.20;99.90;;;;;;5091849;28;20553;-69
2022/10/28 07:43:00;;;;;;;25.03;18.13;;;14.20;99.90;;;;;;5091372;28;20246;-67
2022/10/28 07:45:27;;;;;;;28.67;18.53;;;14.30;99.90;;;;;;5091546;28;20213;-69
2022/10/28 07:47:54;;;;;;;25.70;17.90;;;14.40;99.90;;;;;;5091068;28;20587;-67
2022/10/28 07:50:21;;;;;;;24.87;19.07;;;14.50;99.90;;;;;;5091675;28;20231;-68
2022/10/28 07:52:48;;;;;;;23.33;18.97;;;14.70;99.90;;;;;;5090079;28;20645;-68
2022/10/28 07:55:16;;;;;;;26.30;18.53;;;14.70;99.90;;;;;;5091774;28;20673;-69
2022/10/28 07:57:43;;;;;;;23.23;17.30;;;14.90;99.90;;;;;;5091478;28;20212;-68
2022/10/28 08:00:10;;;;;;;24.07;18.80;;;15.10;99.90;;;;;;5091566;28;20193;-68
2022/10/28 08:02:37;;;;;;;25.90;18.23;;;15.40;99.90;;;;;;5091379;28;20212;-69
2022/10/28 08:05:05;;;;;;;23.67;17.60;;;15.80;99.90;;;;;;5091727;28;20705;-68
2022/10/28 08:07:32;;;;;;;22.20;17.80;;;16.20;99.90;;;;;;5091117;28;20243;-69
2022/10/28 08:09:58;;;;;;;27.67;18.52;;;16.40;99.90;;;;;;5090176;28;20584;-68
2022/10/28 08:12:27;;;;;;;20.63;17.00;;;16.50;99.90;;;;;;5091305;28;20272;-68
2022/10/28 08:14:55;;;;;;;21.70;17.00;;;16.50;99.90;;;;;;5091490;28;20295;-69
2022/10/28 08:17:21;;;;;;;24.87;17.53;;;16.60;99.90;;;;;;5090223;28;20219;-69
2022/10/28 08:19:48;;;;;;;25.50;17.97;;;16.60;99.90;;;;;;5091433;28;20557;-69
2022/10/28 08:22:15;;;;;;;21.60;18.40;;;16.50;99.90;;;;;;5090828;28;20231;-68
2022/10/28 08:24:41;;;;;;;24.30;18.13;;;16.60;99.90;;;;;;5090845;28;20600;-71
2022/10/28 08:27:08;;;;;;;21.15;17.85;;;16.60;99.90;;;;;;5089627;28;20205;-69
2022/10/28 08:29:36;;;;;;;22.88;17.42;;;16.60;99.90;;;;;;5090725;28;20659;-68
2022/10/28 08:32:03;;;;;;;22.77;17.37;;;16.70;99.90;;;;;;5090659;28;20197;-68
2022/10/28 08:34:30;;;;;;;21.00;18.38;;;16.80;99.90;;;;;;5090650;28;20684;-69
2022/10/28 08:36:57;;;;;;;24.85;17.17;;;17.00;99.90;;;;;;5090856;28;20204;-68
2022/10/28 08:39:24;;;;;;;21.38;17.77;;;17.20;99.90;;;;;;5090233;28;20204;-69
2022/10/28 08:41:58;;;;;;;19.75;17.48;;;17.50;99.90;;;;;;5089098;28;20207;-68
2022/10/28 08:45:03;;;;;;;21.40;18.20;;;17.60;99.90;;;;;;5090899;28;20556;-68
2022/10/28 08:47:40;;;;;;;21.10;17.02;;;17.60;99.90;;;;;;5090779;28;20208;-68
2022/10/28 08:50:13;;;;;;;23.67;17.65;;;17.70;99.90;;;;;;5090794;28;20620;-68
2022/10/28 08:52:45;;;;;;;22.05;17.90;;;17.70;99.90;;;;;;5090985;28;20192;-68
2022/10/28 08:55:16;;;;;;;25.25;18.10;;;17.60;99.90;;;;;;5090940;28;20208;-69
2022/10/28 08:57:46;;;;;;;26.50;19.63;;;17.90;99.90;;;;;;5091355;28;20684;-68
2022/10/28 09:00:21;;;;;;;20.27;16.52;;;20.10;99.90;;;;;;5090270;28;20208;-69
2022/10/28 09:02:56;;;;;;;20.05;15.77;;;23.20;99.90;;;;;;5091049;28;20199;-69
2022/10/28 09:05:24;;;;;;;17.45;15.25;;;26.00;99.90;;;;;;5090973;28;20233;-69
2022/10/28 09:07:51;;;;;;;20.27;15.18;;;28.50;93.00;;;;;;5090443;28;20193;-69
2022/10/28 09:10:34;;;;;;;19.77;14.82;;;30.60;79.30;;;;;;5090423;28;20232;-68
2022/10/28 09:13:12;;;;;;;19.13;14.68;;;32.40;66.60;;;;;;5090228;28;20189;-68
2022/10/28 09:15:49;;;;;;;18.05;14.07;;;34.00;57.80;;;;;;5089959;28;20574;-68
2022/10/28 09:18:21;;;;;;;21.05;14.55;;;35.10;53.10;;;;;;5090458;28;20625;-68
2022/10/28 09:20:52;;;;;;;17.35;14.25;;;36.10;50.70;;;;;;5090623;28;20185;-67
2022/10/28 09:23:23;;;;;;;15.63;13.90;;;37.30;48.30;;;;;;5089847;28;20239;-68
2022/10/28 09:26:04;;;;;;;17.58;14.15;;;38.20;45.70;;;;;;5089950;28;20200;-69
2022/10/28 09:28:46;;;;;;;16.80;13.18;;;37.00;43.80;;;;;;5091439;28;20203;-68
2022/10/28 09:31:25;;;;;;;16.58;13.15;;;34.60;46.30;;;;;;5093187;28;20235;-69
2022/10/28 09:34:04;;;;;;;20.80;13.93;;;33.40;49.80;;;;;;5094067;28;20660;-68
2022/10/28 09:36:36;;;;;;;17.42;14.55;;;33.90;50.00;;;;;;5093597;28;20192;-68
2022/10/28 09:39:05;;;;;;;19.13;13.35;;;35.30;48.00;;;;;;5093985;28;20193;-68
2022/10/28 09:41:36;;;;;;;15.05;13.15;;;36.50;46.00;;;;;;5093674;28;20200;-67
2022/10/28 09:44:13;;;;;;;16.77;13.73;;;37.40;44.90;;;;;;5093954;28;20189;-68
2022/10/28 09:46:41;;;;;;;17.15;13.35;;;38.60;43.50;;;;;;5094700;28;20197;-68
2022/10/28 09:49:16;;;;;;;19.63;14.13;;;39.40;41.30;;;;;;5092825;28;20213;-68
2022/10/28 09:51:50;;;;;;;19.45;13.38;;;38.60;40.30;;;;;;5093972;28;20219;-68
2022/10/28 09:54:18;;;;;;;17.60;14.07;;;36.90;41.60;;;;;;5093747;28;20515;-68
2022/10/28 09:56:45;;;;;;;15.73;14.02;;;35.30;43.90;;;;;;5093574;28;20611;-67
2022/10/28 09:59:15;;;;;;;20.00;14.27;;;34.40;45.90;;;;;;5093726;28;20204;-68
2022/10/28 10:01:46;;;;;;;17.17;14.38;;;34.70;46.50;;;;;;5092051;28;22241;-68
2022/10/28 10:04:18;;;;;;;18.15;14.35;;;36.00;45.50;;;;;;5093537;28;20224;-68
2022/10/28 10:06:46;;;;;;;17.20;13.48;;;37.60;43.10;;;;;;5093142;28;20233;-69
2022/10/28 10:09:18;;;;;;;21.52;13.45;;;38.50;41.40;;;;;;5093331;28;20540;-68
2022/10/28 10:11:48;;;;;;;18.20;14.10;;;38.50;41.10;;;;;;5093061;28;20657;-69
2022/10/28 10:14:19;;;;;;;16.30;13.57;;;38.30;41.60;;;;;;5093025;28;20208;-68
2022/10/28 10:16:52;;;;;;;20.95;13.07;;;38.80;41.30;;;;;;5092984;28;20200;-68
2022/10/28 10:19:19;;;;;;;13.23;11.70;;;39.60;40.70;;;;;;5092274;28;20211;-68
2022/10/28 10:21:47;;;;;;;15.35;12.77;;;41.10;38.90;;;;;;5092936;28;20196;-68
2022/10/28 10:24:30;;;;;;;18.42;13.23;;;42.10;37.40;;;;;;5093469;28;20672;-68
2022/10/28 10:27:00;;;;;;;13.35;11.95;;;42.30;36.60;;;;;;5072917;28;20192;-68
2022/10/28 10:29:27;;;;;;;15.80;11.98;;;42.60;36.10;;;;;;5073073;28;20203;-69
2022/10/28 10:32:18;;;;;;;13.43;12.00;;;42.70;35.90;;;;;;5072737;28;20701;-68
2022/10/28 10:34:50;;;;;;;14.35;12.25;;;43.10;35.20;;;;;;5072146;28;20196;-68
2022/10/28 10:37:20;;;;;;;15.18;12.38;;;43.90;34.60;;;;;;5073070;28;20644;-68
2022/10/28 10:40:00;;;;;;;17.38;11.85;;;44.60;34.10;;;;;;5072150;28;20204;-69
2022/10/28 10:42:26;;;;;;;16.80;11.85;;;44.90;33.30;;;;;;5071892;28;20189;-69
2022/10/28 10:45:01;;;;;;;15.68;12.25;;;45.30;32.70;;;;;;5072574;28;20212;-68
2022/10/28 10:47:30;;;;;;;14.70;10.93;;;45.20;32.30;;;;;;5072247;28;20184;-68
2022/10/28 10:50:22;;;;;;;12.75;11.52;;;45.30;32.70;;;;;;5072453;28;20204;-68
2022/10/28 10:52:51;;;;;;;16.92;12.02;;;45.90;31.90;;;;;;5074312;28;20210;-68
2022/10/28 10:55:23;;;;;;;13.80;11.70;;;46.50;31.40;;;;;;5092446;28;20672;-68
2022/10/28 10:57:50;;;;;;;15.63;12.18;;;46.80;30.50;;;;;;5092058;28;20196;-68
2022/10/28 11:00:21;;;;;;;13.25;11.70;;;46.80;30.40;;;;;;5092211;28;20203;-68
2022/10/28 11:02:51;;;;;;;15.73;11.07;;;47.00;30.10;;;;;;5092044;28;20192;-67
2022/10/28 11:05:21;;;;;;;15.32;10.98;;;47.00;30.30;;;;;;5091667;28;20196;-68
2022/10/28 11:07:50;;;;;;;14.73;10.80;;;47.30;30.10;;;;;;5092092;28;20754;-69
2022/10/28 11:10:25;;;;;;;11.98;10.32;;;47.40;30.10;;;;;;5090573;28;20204;-69
2022/10/28 11:12:54;;;;;;;13.52;10.80;;;47.60;29.90;;;;;;5091940;28;20206;-68
2022/10/28 11:15:26;;;;;;;17.48;11.77;;;47.80;29.80;;;;;;5091903;28;20200;-69
2022/10/28 11:18:00;;;;;;;14.32;10.23;;;48.20;29.50;;;;;;5091622;28;20185;-68
2022/10/28 11:20:33;;;;;;;11.52;10.43;;;48.30;29.20;;;;;;5092039;28;20183;-70
2022/10/28 11:23:29;;;;;;;11.85;10.65;;;48.70;29.10;;;;;;5091522;28;20231;-69
2022/10/28 11:26:00;;;;;;;12.15;10.18;;;48.90;28.70;;;;;;5090722;28;20203;-69
2022/10/28 11:28:57;;;;;;;13.75;10.10;;;48.90;28.70;;;;;;5091537;28;20192;-70
2022/10/28 11:31:49;;;;;;;11.00;9.60;;;48.50;28.80;;;;;;5091836;28;20212;-69
2022/10/28 11:34:33;;;;;;;12.25;9.15;;;48.50;29.00;;;;;;5091292;28;20230;-69
2022/10/28 11:37:08;;;;;;;13.10;10.05;;;48.80;28.80;;;;;;5091318;28;20200;-70
2022/10/28 11:39:41;;;;;;;10.50;9.07;;;49.20;28.50;;;;;;5091230;28;20196;-68
2022/10/28 11:42:20;;;;;;;10.48;9.38;;;49.00;28.10;;;;;;5091411;28;20276;-69
2022/10/28 11:44:53;;;;;;;13.27;9.48;;;47.60;28.20;;;;;;5089409;28;20196;-69
2022/10/28 11:47:44;;;;;;;17.27;9.50;;;45.10;29.60;;;;;;5071182;28;20189;-68
2022/10/28 11:50:25;;;;;;;12.13;10.15;;;42.10;31.80;;;;;;5070904;28;20204;-69
2022/10/28 11:53:17;;;;;;;15.65;9.88;;;39.20;35.00;;;;;;5070786;28;20197;-68
2022/10/28 11:55:50;;;;;;;10.93;9.68;;;36.60;38.20;;;;;;5071146;28;20499;-69
2022/10/28 11:58:25;;;;;;;14.27;9.98;;;34.30;41.10;;;;;;5070895;28;20193;-68
2022/10/28 12:01:09;;;;;;;13.45;10.43;;;32.50;43.90;;;;;;5078506;28;20196;-69
2022/10/28 12:04:16;;;;;;;11.77;9.63;;;31.10;46.40;;;;;;5090929;28;20193;-68
2022/10/28 12:06:55;;;;;;;15.60;10.13;;;29.70;48.90;;;;;;5060165;28;20242;-68
2022/10/28 12:09:28;;;;;;;14.57;9.65;;;28.50;51.10;;;;;;5090880;28;20214;-68
2022/10/28 12:12:09;;;;;;;16.75;10.45;;;27.60;53.10;;;;;;5090430;28;20213;-68
2022/10/28 12:14:45;;;;;;;13.32;9.55;;;26.80;54.90;;;;;;5091182;28;20188;-69
2022/10/28 12:17:17;;;;;;;14.77;10.75;;;26.10;56.40;;;;;;5090325;28;20189;-69
2022/10/28 12:19:50;;;;;;;16.25;9.18;;;25.60;57.80;;;;;;5089502;28;20215;-68
2022/10/28 12:22:25;;;;;;;19.85;8.82;;;25.10;58.90;;;;;;5090562;28;20700;-67
2022/10/28 12:24:54;;;;;;;13.80;9.48;;;24.70;60.00;;;;;;5090886;28;20495;-68
2022/10/28 12:27:25;;;;;;;13.48;9.23;;;24.40;61.30;;;;;;5090157;28;20208;-69
2022/10/28 12:29:57;;;;;;;14.48;9.27;;;24.10;62.40;;;;;;5090784;28;20559;-68
2022/10/28 12:32:28;;;;;;;10.55;8.10;;;23.80;63.50;;;;;;5090501;28;20209;-68
2022/10/28 12:35:00;;;;;;;11.25;7.35;;;23.50;64.30;;;;;;5089753;28;20200;-68
2022/10/28 12:37:33;;;;;;;9.38;7.10;;;23.20;65.00;;;;;;5090593;28;20592;-70
2022/10/28 12:40:05;;;;;;;11.77;7.93;;;23.00;65.70;;;;;;5090280;28;20196;-69
2022/10/28 12:42:35;;;;;;;10.27;7.60;;;22.80;66.80;;;;;;5090643;28;20200;-68
2022/10/28 12:45:06;;;;;;;17.45;7.25;;;22.60;67.60;;;;;;5090635;28;20205;-68